Time;durP1;ratioP1;P1;durP2;ratioP2;P2;SDS_P1;SDS_P2;PMS_P1;PMS_P2;Temp;Humidity;BMP_temperature;BMP_pressure;BME280_temperature;BME280_humidity;BME280_pressure;Samples;Min_cycle;Max_cycle;Signal;HPM_P1;HPM_P2
2021/05/21 00:04:15;;;;;;;2.60;1.10;;;14.90;59.00;;;;;;10135093;28;20061;-54
2021/05/21 00:09:06;;;;;;;0.60;0.60;;;14.90;59.00;;;;;;10134376;28;20753;-55
2021/05/21 00:13:57;;;;;;;1.17;0.88;;;14.90;59.10;;;;;;10134722;28;20074;-53
2021/05/21 00:18:49;;;;;;;1.60;0.77;;;14.90;59.20;;;;;;10144903;28;20535;-57
2021/05/21 00:23:39;;;;;;;2.53;0.75;;;14.80;59.20;;;;;;10146033;28;20411;-55
2021/05/21 00:28:30;;;;;;;2.42;0.98;;;14.70;59.50;;;;;;10154396;28;20047;-57
2021/05/21 00:33:21;;;;;;;1.35;0.90;;;14.70;59.40;;;;;;10135433;28;21547;-54
2021/05/21 00:38:12;;;;;;;2.05;0.90;;;14.50;59.40;;;;;;10133320;28;20061;-53
2021/05/21 00:43:03;;;;;;;0.68;0.68;;;14.50;59.40;;;;;;10127305;28;20035;-57
2021/05/21 00:47:53;;;;;;;2.05;1.17;;;14.50;59.60;;;;;;10144376;28;20031;-55
2021/05/21 00:52:45;;;;;;;1.33;0.70;;;14.40;59.50;;;;;;10141056;28;20492;-57
2021/05/21 00:57:36;;;;;;;0.95;0.85;;;14.30;59.70;;;;;;10137709;28;20070;-56
2021/05/21 01:02:27;;;;;;;1.63;0.65;;;14.30;59.90;;;;;;10138565;28;21312;-52
2021/05/21 01:07:17;;;;;;;0.90;0.68;;;14.20;60.00;;;;;;10144146;28;20059;-55
2021/05/21 01:12:08;;;;;;;2.45;1.05;;;14.20;60.00;;;;;;10135881;28;20052;-57
2021/05/21 01:16:59;;;;;;;3.35;0.70;;;14.20;60.10;;;;;;10128854;28;20052;-55
2021/05/21 01:21:50;;;;;;;1.30;0.88;;;14.10;60.20;;;;;;10144416;28;20506;-56
2021/05/21 01:26:41;;;;;;;2.92;0.77;;;14.10;60.20;;;;;;10130744;28;20498;-58
2021/05/21 01:31:33;;;;;;;2.15;0.90;;;14.10;60.50;;;;;;10128836;28;20394;-58
2021/05/21 01:36:24;;;;;;;1.13;0.75;;;14.10;60.60;;;;;;10140095;28;20659;-59
2021/05/21 01:41:15;;;;;;;1.55;0.93;;;14.10;60.40;;;;;;10139920;28;20067;-58
2021/05/21 01:46:06;;;;;;;4.28;0.98;;;14.00;60.60;;;;;;10137667;28;20515;-58
2021/05/21 01:51:03;;;;;;;1.67;0.90;;;14.00;60.80;;;;;;10133310;28;20532;-57
2021/05/21 01:55:53;;;;;;;1.15;0.70;;;14.00;61.00;;;;;;10143433;28;20130;-57
2021/05/21 02:00:44;;;;;;;1.42;1.02;;;13.90;60.90;;;;;;10143096;28;20070;-55
2021/05/21 02:05:35;;;;;;;2.65;0.90;;;13.90;61.10;;;;;;10142603;28;20194;-56
2021/05/21 02:10:26;;;;;;;1.27;0.88;;;13.80;61.50;;;;;;10142449;28;20464;-54
2021/05/21 02:15:17;;;;;;;1.60;0.77;;;13.70;61.70;;;;;;10136230;28;20425;-57
2021/05/21 02:20:08;;;;;;;2.60;0.95;;;13.70;61.70;;;;;;10141365;28;20070;-55
2021/05/21 02:25:01;;;;;;;2.80;0.70;;;13.70;62.10;;;;;;10135920;28;20470;-54
2021/05/21 02:29:52;;;;;;;1.48;0.68;;;13.60;62.20;;;;;;10146511;28;20502;-57
2021/05/21 02:34:43;;;;;;;1.20;1.10;;;13.60;62.20;;;;;;10141901;28;20063;-54
2021/05/21 02:39:34;;;;;;;1.58;1.10;;;13.50;62.40;;;;;;10143382;28;20036;-53
2021/05/21 02:44:25;;;;;;;1.10;0.85;;;13.50;62.60;;;;;;10132508;28;20059;-54
2021/05/21 02:49:19;;;;;;;1.35;0.90;;;13.60;62.50;;;;;;10139067;28;20454;-58
2021/05/21 02:54:10;;;;;;;1.65;1.08;;;13.60;62.60;;;;;;10142957;28;20035;-57
2021/05/21 02:59:01;;;;;;;2.83;1.10;;;13.60;62.80;;;;;;10133103;28;20070;-54
2021/05/21 03:03:52;;;;;;;1.33;0.80;;;13.60;63.10;;;;;;10119966;28;20549;-56
2021/05/21 03:08:42;;;;;;;1.50;0.90;;;13.60;63.20;;;;;;10138688;28;20337;-52
2021/05/21 03:13:33;;;;;;;1.63;1.15;;;13.50;63.60;;;;;;10139886;28;20285;-56
2021/05/21 03:18:24;;;;;;;1.42;0.95;;;13.50;63.60;;;;;;10141870;28;20413;-56
2021/05/21 03:23:15;;;;;;;1.17;0.77;;;13.50;63.60;;;;;;10151060;28;20413;-57
2021/05/21 03:28:05;;;;;;;1.08;0.95;;;13.30;64.00;;;;;;10136224;28;20036;-56
2021/05/21 03:32:56;;;;;;;1.30;0.82;;;13.20;63.90;;;;;;10145494;28;20167;-57
2021/05/21 03:37:47;;;;;;;0.80;0.80;;;13.20;64.10;;;;;;10127646;28;20023;-53
2021/05/21 03:42:38;;;;;;;1.98;0.80;;;13.10;64.20;;;;;;10135883;28;20063;-54
2021/05/21 03:47:28;;;;;;;1.40;0.80;;;13.10;64.30;;;;;;10137870;28;20075;-55
2021/05/21 03:52:19;;;;;;;0.90;0.68;;;13.10;64.30;;;;;;10139145;28;20448;-54
2021/05/21 03:57:10;;;;;;;0.95;0.77;;;13.20;64.40;;;;;;10138972;28;20058;-55
2021/05/21 04:02:00;;;;;;;1.45;1.00;;;13.20;64.60;;;;;;10136222;28;20102;-54
2021/05/21 04:06:51;;;;;;;3.90;0.80;;;13.30;64.50;;;;;;10135554;28;20489;-54
2021/05/21 04:11:42;;;;;;;0.77;0.77;;;13.30;64.50;;;;;;10126490;28;20278;-52
2021/05/21 04:16:33;;;;;;;2.92;0.98;;;13.40;64.50;;;;;;10136392;28;20249;-56
2021/05/21 04:21:24;;;;;;;1.63;1.10;;;13.40;64.60;;;;;;10141533;28;20055;-54
2021/05/21 04:26:15;;;;;;;1.27;1.00;;;13.50;64.50;;;;;;10132634;28;20564;-57
2021/05/21 04:31:07;;;;;;;1.30;0.80;;;13.50;64.70;;;;;;10135202;28;20051;-54
2021/05/21 04:35:58;;;;;;;1.65;1.10;;;13.50;64.80;;;;;;10134260;28;20043;-55
2021/05/21 04:40:48;;;;;;;3.38;0.93;;;13.50;64.80;;;;;;10146706;28;20036;-52
2021/05/21 04:45:39;;;;;;;4.97;1.10;;;13.60;64.80;;;;;;10144334;28;20552;-58
2021/05/21 04:50:30;;;;;;;2.00;1.13;;;13.70;64.70;;;;;;10141698;28;20039;-55
2021/05/21 04:55:22;;;;;;;1.60;0.90;;;13.70;64.50;;;;;;10135870;28;20490;-57
2021/05/21 05:00:13;;;;;;;2.95;0.80;;;13.80;64.70;;;;;;10132192;28;20592;-56
2021/05/21 05:05:04;;;;;;;1.40;0.88;;;13.80;64.90;;;;;;10134322;28;20549;-55
2021/05/21 05:09:55;;;;;;;2.28;0.98;;;13.80;64.90;;;;;;10135219;28;20456;-53
2021/05/21 05:14:45;;;;;;;1.05;0.85;;;13.80;64.90;;;;;;10139912;28;20044;-53
2021/05/21 05:19:36;;;;;;;2.60;0.90;;;13.90;64.80;;;;;;10133593;28;20398;-55
2021/05/21 05:24:32;;;;;;;2.25;0.90;;;13.90;64.70;;;;;;10141443;28;20418;-54
2021/05/21 05:29:23;;;;;;;1.65;0.75;;;13.90;64.80;;;;;;10142405;28;20258;-56
2021/05/21 05:34:14;;;;;;;1.42;0.80;;;14.00;64.70;;;;;;10141481;28;20043;-58
2021/05/21 05:39:08;;;;;;;1.50;0.88;;;14.10;64.50;;;;;;10137895;28;20028;-58
2021/05/21 05:43:59;;;;;;;2.88;0.90;;;14.20;64.40;;;;;;10145296;28;20052;-56
2021/05/21 05:48:50;;;;;;;1.80;1.10;;;14.20;64.40;;;;;;10141839;28;20020;-54
2021/05/21 05:53:41;;;;;;;2.42;1.10;;;14.30;64.30;;;;;;10135956;28;20369;-54
2021/05/21 05:58:32;;;;;;;2.08;1.40;;;14.20;64.30;;;;;;10138139;28;20028;-56
2021/05/21 06:03:23;;;;;;;2.95;0.90;;;14.30;64.30;;;;;;10138368;28;20028;-55
2021/05/21 06:08:14;;;;;;;1.65;1.02;;;14.20;64.30;;;;;;10133086;28;20113;-54
2021/05/21 06:13:09;;;;;;;2.80;1.27;;;14.40;64.10;;;;;;10133608;28;20510;-56
2021/05/21 06:18:00;;;;;;;6.55;3.08;;;14.40;63.90;;;;;;10130498;28;20773;-54
2021/05/21 06:22:52;;;;;;;1.30;0.90;;;14.50;63.80;;;;;;10138946;28;20028;-55
2021/05/21 06:27:42;;;;;;;2.58;1.02;;;14.70;63.40;;;;;;10136748;28;20023;-56
2021/05/21 06:32:33;;;;;;;2.80;1.20;;;14.70;63.00;;;;;;10137550;28;20036;-57
2021/05/21 06:37:24;;;;;;;2.85;1.23;;;14.70;62.90;;;;;;10142207;28;20490;-58
2021/05/21 06:42:15;;;;;;;2.15;1.10;;;14.70;62.70;;;;;;10143175;28;20024;-60
2021/05/21 06:47:05;;;;;;;2.97;0.70;;;14.70;62.50;;;;;;10131448;28;20536;-60
2021/05/21 06:51:56;;;;;;;1.48;0.88;;;14.70;62.40;;;;;;10135714;28;20044;-58
2021/05/21 06:56:47;;;;;;;3.30;0.95;;;14.70;62.10;;;;;;10135612;28;20457;-58
2021/05/21 07:01:37;;;;;;;2.05;0.63;;;14.80;61.80;;;;;;10127434;28;20947;-60
2021/05/21 07:06:42;;;;;;;2.88;1.05;;;14.80;61.60;;;;;;10072970;28;20366;-59
2021/05/21 07:11:33;;;;;;;1.17;0.77;;;14.90;61.50;;;;;;10073053;28;20612;-62
2021/05/21 07:16:23;;;;;;;1.52;1.00;;;14.90;61.30;;;;;;10072939;28;20053;-59
2021/05/21 07:21:14;;;;;;;1.35;0.85;;;15.00;60.60;;;;;;10072114;28;20036;-61
2021/05/21 07:26:05;;;;;;;3.33;1.10;;;15.10;60.90;;;;;;10073089;28;20201;-59
2021/05/21 07:30:56;;;;;;;1.42;0.73;;;15.20;60.80;;;;;;10073347;28;20056;-55
2021/05/21 07:35:47;;;;;;;1.95;0.90;;;15.20;60.80;;;;;;10072763;28;20082;-58
2021/05/21 07:40:38;;;;;;;2.50;0.90;;;15.10;60.70;;;;;;10072508;28;20098;-59
2021/05/21 07:45:28;;;;;;;2.42;0.90;;;15.10;60.90;;;;;;10071774;28;20040;-58
2021/05/21 07:50:19;;;;;;;2.83;1.33;;;15.10;60.80;;;;;;10071900;28;20513;-61
2021/05/21 07:55:11;;;;;;;1.60;0.88;;;15.20;60.70;;;;;;10073181;28;20079;-59
2021/05/21 08:00:07;;;;;;;1.42;1.15;;;15.20;60.70;;;;;;10070327;28;20034;-58
2021/05/21 08:04:57;;;;;;;2.40;1.15;;;15.20;60.70;;;;;;10072225;28;20409;-59
2021/05/21 08:09:51;;;;;;;1.58;1.00;;;15.30;60.60;;;;;;10071529;28;20028;-62
2021/05/21 08:14:41;;;;;;;2.30;1.10;;;15.30;60.40;;;;;;10063922;28;20028;-60
2021/05/21 08:19:32;;;;;;;2.35;1.48;;;15.40;60.40;;;;;;10011527;28;20411;-55
2021/05/21 08:24:23;;;;;;;1.55;1.00;;;15.50;60.30;;;;;;10046668;28;20215;-60
2021/05/21 08:29:14;;;;;;;2.78;0.82;;;15.50;60.20;;;;;;10045962;28;20033;-58
2021/05/21 08:34:04;;;;;;;4.55;1.52;;;15.60;60.20;;;;;;10044286;28;20533;-61
2021/05/21 08:38:55;;;;;;;1.73;0.80;;;15.60;60.00;;;;;;10044836;28;20513;-59
2021/05/21 08:43:48;;;;;;;2.33;1.20;;;15.80;59.90;;;;;;10043154;28;20318;-61
2021/05/21 08:48:40;;;;;;;1.83;0.85;;;15.90;59.70;;;;;;10045146;28;20878;-61
2021/05/21 08:53:31;;;;;;;1.92;0.80;;;16.00;59.40;;;;;;10043470;28;20045;-60
2021/05/21 08:58:22;;;;;;;2.75;0.70;;;16.10;59.10;;;;;;10046333;28;20041;-60
2021/05/21 09:03:30;;;;;;;1.77;0.88;;;16.20;59.00;;;;;;10045031;28;20053;-60
2021/05/21 09:08:41;;;;;;;2.13;0.70;;;16.40;58.70;;;;;;10043381;28;20036;-59
2021/05/21 09:13:35;;;;;;;1.02;0.82;;;16.50;58.60;;;;;;10043656;28;20035;-58
2021/05/21 09:18:28;;;;;;;1.52;0.68;;;16.50;59.40;;;;;;10033261;28;20062;-58
2021/05/21 09:23:20;;;;;;;6.07;1.00;;;16.50;58.60;;;;;;9980324;28;20047;-61
2021/05/21 09:28:36;;;;;;;2.63;0.90;;;16.50;58.60;;;;;;10040283;28;20037;-58
2021/05/21 09:33:32;;;;;;;;;;;16.60;58.60;;;;;;10041714;28;20802;-59
2021/05/21 09:38:23;;;;;;;;;;;16.50;58.60;;;;;;10025617;28;19924;-60
2021/05/21 09:43:14;;;;;;;1.73;1.08;;;16.40;58.90;;;;;;10073831;28;19935;-58
2021/05/21 09:48:10;;;;;;;1.45;0.90;;;16.40;59.00;;;;;;10039116;28;20037;-58
2021/05/21 09:53:24;;;;;;;2.85;0.90;;;16.30;59.20;;;;;;10041485;28;20033;-59
2021/05/21 09:58:35;;;;;;;2.17;0.50;;;16.30;59.50;;;;;;10040450;28;20066;-59
2021/05/21 10:03:26;;;;;;;2.22;0.70;;;16.30;60.00;;;;;;10040743;28;20053;-58
2021/05/21 10:08:17;;;;;;;2.08;1.05;;;16.50;59.90;;;;;;10040417;28;20740;-56
2021/05/21 10:13:08;;;;;;;1.35;0.70;;;16.50;60.00;;;;;;10041500;28;20147;-57
2021/05/21 10:17:59;;;;;;;2.83;0.75;;;16.40;60.40;;;;;;10039462;28;20111;-59
2021/05/21 10:22:50;;;;;;;1.13;0.82;;;16.50;60.40;;;;;;10040591;28;20036;-59
2021/05/21 10:27:46;;;;;;;2.00;1.10;;;16.70;60.40;;;;;;10040415;28;20496;-58
2021/05/21 10:32:37;;;;;;;1.42;1.00;;;16.70;60.40;;;;;;10041264;28;20044;-57
2021/05/21 10:37:31;;;;;;;1.88;0.73;;;16.70;60.70;;;;;;10041031;28;20063;-61
2021/05/21 10:42:22;;;;;;;1.60;0.55;;;16.70;60.80;;;;;;10040069;28;20264;-59
2021/05/21 10:47:16;;;;;;;5.65;1.58;;;16.60;61.00;;;;;;10040541;28;20021;-57
2021/05/21 10:52:08;;;;;;;2.33;1.17;;;16.60;61.00;;;;;;10037392;28;20123;-55
2021/05/21 10:57:13;;;;;;;1.60;0.73;;;16.90;60.80;;;;;;10038282;28;20103;-54
2021/05/21 11:02:04;;;;;;;1.58;0.90;;;17.50;60.10;;;;;;10038981;28;20409;-57
2021/05/21 11:06:55;;;;;;;1.90;0.98;;;17.80;59.60;;;;;;10042595;28;20060;-56
2021/05/21 11:12:08;;;;;;;2.00;1.00;;;17.70;59.90;;;;;;10041811;28;21456;-56
2021/05/21 11:17:12;;;;;;;1.35;1.08;;;17.40;60.40;;;;;;10041598;28;20059;-54
2021/05/21 11:22:28;;;;;;;2.88;0.90;;;17.10;60.70;;;;;;10041462;28;20128;-53
2021/05/21 11:27:19;;;;;;;;;;;16.80;61.10;;;;;;10040741;28;20878;-55
2021/05/21 11:32:10;;;;;;;1.65;0.90;;;16.70;61.20;;;;;;10038132;28;19951;-58
2021/05/21 11:37:02;;;;;;;1.15;1.02;;;16.90;60.70;;;;;;10039648;28;20037;-55
2021/05/21 11:41:54;;;;;;;2.65;0.65;;;17.10;60.30;;;;;;10038073;28;20029;-55
2021/05/21 11:46:46;;;;;;;1.08;0.57;;;17.00;60.50;;;;;;10039839;28;20111;-53
2021/05/21 11:51:37;;;;;;;1.25;0.80;;;16.80;60.70;;;;;;10042806;28;20097;-57
2021/05/21 11:56:32;;;;;;;7.90;1.25;;;16.80;60.70;;;;;;10043971;28;20070;-53
2021/05/21 12:01:23;;;;;;;1.50;0.80;;;16.80;60.60;;;;;;10047051;28;20492;-57
2021/05/21 12:06:14;;;;;;;0.75;0.50;;;16.70;60.30;;;;;;10044738;28;21050;-53
2021/05/21 12:11:05;;;;;;;2.90;0.93;;;16.60;60.30;;;;;;10047088;28;20078;-54
2021/05/21 12:16:30;;;;;;;0.93;0.70;;;16.70;60.30;;;;;;10045083;28;20086;-55
2021/05/21 12:21:26;;;;;;;2.72;0.80;;;16.80;59.30;;;;;;10034054;28;20052;-58
2021/05/21 12:26:19;;;;;;;1.52;1.00;;;16.90;59.40;;;;;;10042108;28;20202;-54
2021/05/21 12:31:11;;;;;;;0.85;0.75;;;16.70;59.50;;;;;;10042470;28;20037;-59
2021/05/21 12:36:12;;;;;;;0.93;0.60;;;16.70;59.60;;;;;;10041651;28;20037;-54
2021/05/21 12:41:03;;;;;;;1.60;0.70;;;16.80;59.00;;;;;;10052934;28;20021;-54
2021/05/21 12:46:05;;;;;;;2.08;0.95;;;16.80;59.10;;;;;;10041347;28;20056;-53
2021/05/21 12:50:56;;;;;;;1.40;0.90;;;16.70;59.20;;;;;;10044450;28;20025;-59
2021/05/21 12:55:46;;;;;;;2.10;1.02;;;16.60;59.20;;;;;;10043732;28;21375;-55
2021/05/21 13:00:39;;;;;;;1.67;0.77;;;16.60;59.30;;;;;;10042244;28;20395;-60
2021/05/21 13:05:30;;;;;;;1.20;0.60;;;16.70;59.10;;;;;;10044153;28;20854;-54
2021/05/21 13:10:20;;;;;;;1.38;0.52;;;16.90;58.90;;;;;;10043908;28;20044;-57
2021/05/21 13:15:22;;;;;;;0.98;0.88;;;16.90;58.60;;;;;;10044001;28;20102;-60
2021/05/21 13:20:16;;;;;;;1.20;0.80;;;17.00;58.40;;;;;;10043213;28;20025;-58
2021/05/21 13:25:08;;;;;;;0.70;0.55;;;17.10;58.70;;;;;;10043588;28;20041;-56
2021/05/21 13:30:00;;;;;;;2.45;1.42;;;17.10;57.70;;;;;;10042672;28;20455;-56
2021/05/21 13:34:51;;;;;;;0.60;0.40;;;17.10;57.30;;;;;;10043252;28;20033;-56
2021/05/21 13:39:43;;;;;;;1.40;0.57;;;17.00;57.00;;;;;;10039905;28;20570;-54
2021/05/21 13:44:34;;;;;;;2.42;0.60;;;17.00;56.90;;;;;;10042155;28;20120;-55
2021/05/21 13:49:25;;;;;;;1.10;0.50;;;17.10;56.80;;;;;;10042246;28;20336;-54
2021/05/21 13:54:17;;;;;;;0.52;0.40;;;17.10;56.80;;;;;;10041806;28;20045;-57
2021/05/21 13:59:07;;;;;;;1.17;0.38;;;17.10;57.00;;;;;;10042159;28;20045;-54
2021/05/21 14:03:58;;;;;;;0.57;0.45;;;17.10;56.90;;;;;;10041419;28;20076;-53
2021/05/21 14:08:49;;;;;;;0.73;0.60;;;17.10;57.00;;;;;;10041850;28;20021;-53
2021/05/21 14:13:40;;;;;;;1.10;0.55;;;17.10;57.10;;;;;;10040411;28;20261;-54
2021/05/21 14:18:31;;;;;;;0.88;0.60;;;16.70;58.30;;;;;;10040858;28;20055;-58
2021/05/21 14:23:21;;;;;;;0.57;0.38;;;16.50;58.00;;;;;;10042315;28;20033;-61
2021/05/21 14:28:12;;;;;;;0.80;0.50;;;16.80;57.70;;;;;;10040510;28;20025;-54
2021/05/21 14:33:03;;;;;;;1.10;0.60;;;16.80;57.80;;;;;;10040351;28;20037;-60
2021/05/21 14:37:56;;;;;;;2.50;0.80;;;16.60;58.60;;;;;;10037232;28;20037;-57
2021/05/21 14:42:46;;;;;;;2.05;0.60;;;16.40;59.50;;;;;;10040786;28;20139;-52
2021/05/21 14:47:38;;;;;;;1.15;0.60;;;16.40;59.80;;;;;;10039462;28;20036;-59
2021/05/21 14:52:29;;;;;;;0.40;0.40;;;16.40;60.40;;;;;;10039852;28;20055;-56
2021/05/21 14:57:25;;;;;;;1.42;1.10;;;16.10;61.30;;;;;;10035196;28;20558;-55
2021/05/21 15:02:20;;;;;;;3.67;0.93;;;15.90;62.20;;;;;;10033579;28;20041;-65
2021/05/21 15:07:10;;;;;;;1.73;0.87;;;15.90;62.70;;;;;;10040460;28;20106;-54
2021/05/21 15:12:03;;;;;;;1.77;0.73;;;15.80;63.20;;;;;;10035413;28;20710;-57
2021/05/21 15:17:11;;;;;;;3.03;1.30;;;15.90;63.50;;;;;;10039311;28;20147;-58
2021/05/21 15:26:54;;;;;;;1.17;0.70;;;16.20;62.80;;;;;;10045043;28;20141;-57
2021/05/21 15:31:45;;;;;;;6.38;2.45;;;16.40;62.40;;;;;;10048213;28;20041;-57
2021/05/21 15:36:37;;;;;;;1.10;0.70;;;16.70;62.50;;;;;;10048291;28;20151;-54
2021/05/21 15:41:33;;;;;;;1.67;0.95;;;17.10;61.90;;;;;;10048517;28;20045;-56
2021/05/21 15:46:28;;;;;;;2.53;1.05;;;17.70;61.20;;;;;;10047913;28;20276;-57
2021/05/21 16:01:22;;;;;;;3.13;0.77;;;23.40;53.50;;;;;;10048758;28;20834;-54
2021/05/21 16:06:13;;;;;;;0.82;0.60;;;22.20;55.50;;;;;;10040825;28;20053;-61
2021/05/21 16:11:06;;;;;;;3.97;1.10;;;22.00;53.80;;;;;;10045255;28;20048;-60
2021/05/21 16:15:57;;;;;;;1.60;0.73;;;19.60;57.80;;;;;;10043491;28;20033;-59
2021/05/21 16:20:48;;;;;;;1.05;0.60;;;18.30;60.30;;;;;;10045148;28;20037;-57
2021/05/21 16:25:38;;;;;;;1.60;0.70;;;17.40;61.50;;;;;;10043276;28;20045;-60
2021/05/21 16:30:29;;;;;;;3.35;1.10;;;17.00;61.90;;;;;;10045431;28;20024;-57
2021/05/21 16:35:20;;;;;;;2.00;0.57;;;16.70;62.10;;;;;;10042928;28;20138;-57
2021/05/21 16:40:12;;;;;;;2.17;0.98;;;16.60;62.20;;;;;;10043404;28;20028;-51
2021/05/21 16:45:05;;;;;;;2.00;0.80;;;16.30;62.30;;;;;;10047215;28;20424;-55
2021/05/21 16:49:56;;;;;;;1.15;0.50;;;16.20;62.60;;;;;;10044470;28;20041;-58
2021/05/21 16:54:47;;;;;;;1.88;0.70;;;16.00;63.30;;;;;;10045825;28;20029;-59
2021/05/21 16:59:37;;;;;;;2.90;1.23;;;16.00;63.20;;;;;;10044794;28;20550;-56
2021/05/21 17:04:29;;;;;;;1.80;1.27;;;16.00;63.70;;;;;;10043646;28;20408;-53
2021/05/21 17:09:23;;;;;;;2.63;1.52;;;16.10;63.30;;;;;;10042951;28;20216;-55
2021/05/21 17:14:19;;;;;;;0.93;0.80;;;16.10;63.50;;;;;;10044053;28;20029;-55
2021/05/21 18:25:00;;;;;;;2.67;1.45;;;15.60;66.50;;;;;;10040117;28;20056;-59
2021/05/21 18:55:00;;;;;;;2.47;1.27;;;15.30;67.10;;;;;;10039825;28;20092;-55
2021/05/21 19:05:04;;;;;;;0.47;0.40;;;14.80;67.90;;;;;;10039336;28;20056;-60
2021/05/21 19:10:13;;;;;;;1.25;0.70;;;14.60;68.10;;;;;;10041519;28;20036;-58
2021/05/21 19:20:20;;;;;;;1.13;0.68;;;14.40;68.60;;;;;;10041673;28;20092;-56
2021/05/21 19:25:11;;;;;;;1.13;0.80;;;14.30;68.80;;;;;;10038148;28;20072;-58
2021/05/21 19:40:25;;;;;;;0.93;0.52;;;14.20;69.40;;;;;;10038705;28;21765;-56
2021/05/21 19:45:24;;;;;;;1.52;0.98;;;14.10;69.80;;;;;;10038985;28;20533;-57
2021/05/21 20:15:32;;;;;;;1.95;0.95;;;13.60;71.00;;;;;;10049006;28;20044;-55
2021/05/21 20:20:23;;;;;;;1.33;0.77;;;13.60;71.30;;;;;;10050826;28;20044;-55
2021/05/21 20:25:23;;;;;;;3.40;1.10;;;13.50;71.40;;;;;;10047579;28;20531;-56
2021/05/21 20:30:21;;;;;;;2.35;1.10;;;13.50;71.30;;;;;;10047563;28;20642;-60
2021/05/21 21:05:46;;;;;;;2.63;0.80;;;13.10;71.60;;;;;;10046751;28;20592;-57
2021/05/21 21:16:00;;;;;;;1.50;0.85;;;13.00;71.30;;;;;;10043488;28;20525;-55
2021/05/21 21:21:09;;;;;;;0.50;0.50;;;12.90;71.30;;;;;;10047266;28;20403;-56
2021/05/21 22:01:51;;;;;;;1.52;0.50;;;12.80;70.40;;;;;;10045880;28;20062;-61
2021/05/21 22:06:43;;;;;;;2.05;0.70;;;12.80;70.10;;;;;;10042581;28;20695;-59
2021/05/21 22:26:23;;;;;;;1.23;0.73;;;12.60;70.10;;;;;;10044637;28;20158;-51
2021/05/21 22:31:14;;;;;;;7.05;2.50;;;12.60;70.40;;;;;;10043719;28;20561;-54
2021/05/21 22:36:06;;;;;;;2.60;1.60;;;12.70;70.20;;;;;;10044344;28;20033;-51
2021/05/21 22:40:57;;;;;;;1.90;0.82;;;12.70;69.70;;;;;;10045558;28;20033;-50
2021/05/21 22:45:48;;;;;;;1.08;0.70;;;12.60;69.90;;;;;;10042814;28;20206;-53
2021/05/21 22:50:38;;;;;;;1.75;0.90;;;12.50;70.10;;;;;;10045863;28;20033;-52
2021/05/21 22:55:30;;;;;;;0.68;0.63;;;12.60;69.90;;;;;;10044696;28;20041;-59
2021/05/21 23:00:21;;;;;;;1.05;0.73;;;12.50;70.00;;;;;;10043971;28;20033;-56
2021/05/21 23:05:12;;;;;;;1.17;0.73;;;12.40;70.30;;;;;;10044885;28;20116;-54
2021/05/21 23:10:04;;;;;;;1.00;0.90;;;12.40;70.30;;;;;;10043013;28;20274;-52
2021/05/21 23:14:54;;;;;;;1.00;0.63;;;12.40;70.20;;;;;;10044509;28;20045;-63
2021/05/21 23:19:45;;;;;;;2.00;0.68;;;12.40;69.90;;;;;;10044034;28;20060;-63
2021/05/21 23:24:36;;;;;;;2.38;0.47;;;12.40;69.90;;;;;;10044569;28;20033;-63
2021/05/21 23:29:26;;;;;;;16.77;7.72;;;12.40;69.80;;;;;;10041712;28;20029;-63
2021/05/21 23:34:18;;;;;;;3.25;1.80;;;12.50;69.40;;;;;;10044217;28;20041;-62
2021/05/21 23:39:09;;;;;;;2.63;0.82;;;12.40;69.60;;;;;;10044790;28;20029;-63
2021/05/21 23:44:00;;;;;;;1.50;0.80;;;12.30;69.80;;;;;;10044925;28;20040;-59
2021/05/21 23:48:51;;;;;;;2.13;0.73;;;12.30;69.90;;;;;;10051183;28;20102;-63
2021/05/21 23:53:42;;;;;;;0.88;0.47;;;12.20;70.20;;;;;;10050479;28;21576;-63
2021/05/21 23:58:33;;;;;;;2.42;0.80;;;12.20;70.20;;;;;;10047710;28;20515;-61
